aviador You're here:

MDSD Decoded Metar

SANTO DOMINGO in DOMINICAN REPUBLIC
Report Time2018-06-19 08:00:00
UTC Time2018-06-19 08:07:44
Flight Rules vfr VFR
Wind040° at 04 kt
W.Decomp.*RWY 35: 1.9 kt HW 3.5 kt RCW
W.Rank040° ranks 2
Current wind is below 040° avg. (5.4)
Visibility9999 m
Phenomena:N/A
Clouds:Few CB 016 Hf
Few 018 Hf
Expected CloudBase > 400 ft AGL from Temp-Dew spread
CeilingNone
Temp23°C (ISA +8)
Dew Point22°C (94% RH)
QNH1015 hPa
Density Alt1,283 ft
Elevation59 ft
Report Wrong Elevation
Raw Report
METAR MDSD 190800Z 04004KT 9999 FEW016CB FEW018 23/22 Q1015 CB/W=

Extra information for MDSD:More info

Metar Taf Metar & Taf Last 4 Metars F.Rules Stats Wind Profile Meteogram Temp Stats Airport Information Weather charts Add Link Nearby VenuesMetar ALERT Operation Metar Decoded Social comments